< Typhoon 197302 1973 Season Typhoon 197304 >
Typhoon 197303 (BILLIE)
General InformationTrack Information on Google Maps || Disaster Info.ResourceGoogle EarthGE AnimationAtom FeedGeoJSON
Detalied Best Track (Time Zone = UTC)
Year Month Day Hour Lat. Long. Pressure (hPa) Wind (kt) Class Image Chart
1973 7 11 06 10.0 129.1 1004 0 2 -- Chart
1973 7 11 12 11.1 128.8 1004 0 2 -- Chart
1973 7 11 18 12.3 128.6 1004 0 2 -- Chart
1973 7 12 00 13.1 128.4 1004 0 2 -- Chart
1973 7 12 06 14.1 127.9 1004 0 2 -- Chart
1973 7 12 12 14.7 127.2 1004 0 2 -- Chart
1973 7 12 18 15.6 126.3 1000 0 2 -- Chart
1973 7 13 00 16.2 125.8 996 0 2 -- Chart
1973 7 13 06 16.9 125.3 990 0 9 -- Chart
1973 7 13 12 17.3 125.2 990 0 9 -- Chart
1973 7 13 18 17.9 125.3 985 0 9 -- Chart
1973 7 14 00 18.6 125.4 985 0 9 -- Chart
1973 7 14 06 19.0 125.5 975 0 9 -- Chart
1973 7 14 12 19.7 125.4 965 0 9 -- Chart
1973 7 14 18 20.5 125.3 940 0 9 -- Chart
1973 7 15 00 21.1 125.3 920 0 9 -- Chart
1973 7 15 06 21.8 125.3 915 0 9 -- Chart
1973 7 15 12 22.6 125.2 940 0 9 -- Chart
1973 7 15 18 23.3 125.1 950 0 9 -- Chart
1973 7 16 00 23.9 125.1 950 0 9 -- Chart
1973 7 16 06 24.7 125.3 950 0 9 -- Chart
1973 7 16 12 25.6 125.7 920 0 9 -- Chart
1973 7 16 18 26.8 125.4 930 0 9 -- Chart
1973 7 17 00 27.6 125.3 945 0 9 -- Chart
1973 7 17 06 28.3 125.2 950 0 9 -- Chart
1973 7 17 12 29.3 125.3 955 0 9 -- Chart
1973 7 17 18 30.4 125.3 960 0 9 -- Chart
1973 7 18 00 31.7 125.0 970 0 9 -- Chart
1973 7 18 06 32.9 124.1 975 0 9 -- Chart
1973 7 18 12 33.6 123.4 980 0 9 -- Chart
1973 7 18 18 34.2 122.1 980 0 9 -- Chart
1973 7 19 00 35.2 121.6 980 0 9 -- Chart
1973 7 19 06 36.0 121.4 985 0 9 -- Chart
1973 7 19 12 37.7 120.9 986 0 9 -- Chart
1973 7 19 18 40.0 120.8 988 0 9 -- Chart
1973 7 20 00 43.0 121.0 992 0 2 -- Chart
Japan Meteorological Agency Best Track Data | Correction Date : 1990-10-17
< Typhoon 197302 1973 Season Typhoon 197304 >

Help